Time;durP1;ratioP1;P1;durP2;ratioP2;P2;SDS_P1;SDS_P2;PMS_P1;PMS_P2;Temp;Humidity;BMP_temperature;BMP_pressure;BME280_temperature;BME280_humidity;BME280_pressure;Samples;Min_cycle;Max_cycle;Signal;HPM_P1;HPM_P2
2021/07/14 00:01:57;;;;;;;2.45;1.90;;;;;;;21.81;65.65;101888.47;5109500;28;20058;-60
2021/07/14 00:04:23;;;;;;;2.80;2.30;;;;;;;21.81;66.04;101888.47;5109536;28;20044;-61
2021/07/14 00:06:48;;;;;;;3.45;2.30;;;;;;;21.81;65.59;101882.31;5107142;28;20042;-60
2021/07/14 00:09:14;;;;;;;3.25;2.47;;;;;;;21.82;65.66;101881.31;5110556;28;20716;-60
2021/07/14 00:11:51;;;;;;;3.65;2.65;;;;;;;21.82;65.69;101878.63;5110359;28;20050;-61
2021/07/14 00:22:24;;;;;;;3.38;2.60;;;;;;;21.80;66.02;101862.78;5109369;28;20088;-60
2021/07/14 00:24:52;;;;;;;2.92;2.47;;;;;;;21.80;65.80;101859.28;5106704;28;20069;-60
2021/07/14 00:27:18;;;;;;;3.40;2.40;;;;;;;21.81;65.78;101864.44;5109767;28;20039;-60
2021/07/14 00:29:56;;;;;;;3.70;2.45;;;;;;;21.81;65.65;101867.13;5091848;28;20028;-60
2021/07/14 00:32:26;;;;;;;4.53;2.65;;;;;;;21.81;65.97;101866.28;5108855;28;20043;-60
2021/07/14 00:34:54;;;;;;;3.55;2.53;;;;;;;21.81;66.07;101863.63;5099949;28;20019;-60
2021/07/14 00:37:19;;;;;;;3.95;2.67;;;;;;;21.81;65.97;101864.44;5105572;28;20058;-60
2021/07/14 00:39:46;;;;;;;3.40;2.72;;;;;;;21.81;66.07;101861.78;5109778;28;20028;-61
2021/07/14 00:42:13;;;;;;;5.38;2.80;;;;;;;21.82;66.17;101865.28;5109937;28;20113;-61
2021/07/14 00:44:40;;;;;;;3.72;2.50;;;;;;;21.82;66.24;101863.44;5110098;28;20030;-60
2021/07/14 00:47:06;;;;;;;4.25;2.90;;;;;;;21.82;66.05;101868.78;5106334;28;20118;-60
2021/07/14 00:49:32;;;;;;;3.63;2.80;;;;;;;21.84;66.10;101871.25;5108237;28;20058;-60
2021/07/14 00:51:58;;;;;;;3.53;2.53;;;;;;;21.83;65.98;101874.94;5107672;28;20441;-60
2021/07/14 00:54:24;;;;;;;3.35;2.50;;;;;;;21.82;66.35;101873.28;5106341;28;20035;-61
2021/07/14 00:56:50;;;;;;;4.00;2.70;;;;;;;21.83;65.92;101874.94;5109265;28;20058;-60
2021/07/14 00:59:16;;;;;;;3.72;2.63;;;;;;;21.82;65.89;101874.13;5106260;28;20035;-60
2021/07/14 01:01:48;;;;;;;5.75;2.65;;;;;;;21.81;66.12;101874.31;5105575;28;20511;-60
2021/07/14 01:04:21;;;;;;;4.55;3.00;;;;;;;21.83;66.36;101877.63;5109716;28;20038;-60
2021/07/14 01:07:07;;;;;;;5.05;3.33;;;;;;;21.82;66.37;101884.81;5102352;28;20495;-60
2021/07/14 01:09:38;;;;;;;4.07;2.75;;;;;;;21.81;66.20;101885.81;5105706;28;20039;-60
2021/07/14 01:12:12;;;;;;;5.25;3.15;;;;;;;21.80;66.21;101881.50;5107061;28;20059;-60
2021/07/14 01:14:45;;;;;;;4.45;2.80;;;;;;;21.81;65.90;101879.66;5105611;28;20043;-60
2021/07/14 01:17:14;;;;;;;4.32;2.53;;;;;;;21.82;66.29;101873.28;5109636;28;20077;-60
2021/07/14 01:19:49;;;;;;;4.55;2.83;;;;;;;21.82;66.23;101875.97;5101842;28;20115;-60
2021/07/14 01:22:35;;;;;;;4.57;2.78;;;;;;;21.79;66.39;101871.81;5093637;28;20068;-60
2021/07/14 01:25:06;;;;;;;5.15;3.15;;;;;;;21.82;66.20;101876.78;5095516;28;20039;-60
2021/07/14 01:27:35;;;;;;;3.78;2.58;;;;;;;21.82;66.13;101871.44;5096057;28;20023;-60
2021/07/14 01:30:05;;;;;;;3.58;2.42;;;;;;;21.82;66.16;101870.63;5095204;28;20032;-61
2021/07/14 01:32:33;;;;;;;4.93;2.97;;;;;;;21.82;66.08;101870.63;5108264;28;20119;-60
2021/07/14 01:35:08;;;;;;;3.92;2.78;;;;;;;21.81;66.05;101863.63;5096192;27;20032;-64
2021/07/14 01:37:34;;;;;;;3.47;2.53;;;;;;;21.83;65.85;101864.25;5107238;28;20139;-60
2021/07/14 01:40:03;;;;;;;4.82;2.90;;;;;;;21.82;66.16;101857.25;5107833;28;20035;-62
2021/07/14 01:42:30;;;;;;;4.40;2.80;;;;;;;21.82;66.06;101859.94;5093906;28;20092;-60
2021/07/14 01:44:58;;;;;;;3.63;2.70;;;;;;;21.82;65.99;101865.28;5108978;28;20032;-60
2021/07/14 01:47:24;;;;;;;4.60;2.70;;;;;;;21.82;66.01;101870.63;5106206;28;20035;-60
2021/07/14 01:49:52;;;;;;;4.40;2.63;;;;;;;21.81;65.82;101877.81;5096327;28;20464;-60
2021/07/14 01:52:22;;;;;;;3.78;2.67;;;;;;;21.82;65.94;101881.31;5107756;28;20145;-60
2021/07/14 01:54:53;;;;;;;3.65;2.50;;;;;;;21.81;66.01;101876.97;5101424;27;20082;-60
2021/07/14 01:57:21;;;;;;;4.47;2.90;;;;;;;21.82;66.07;101874.13;5100316;28;20035;-60
2021/07/14 01:59:50;;;;;;;4.35;2.83;;;;;;;21.82;65.82;101870.63;5107389;28;20204;-60
2021/07/14 02:02:20;;;;;;;3.75;3.15;;;;;;;21.83;65.75;101869.59;5108219;28;20046;-60
2021/07/14 02:04:46;;;;;;;4.40;2.63;;;;;;;21.82;65.92;101875.97;5093025;28;20056;-60
2021/07/14 02:07:25;;;;;;;4.15;2.55;;;;;;;21.79;65.60;101876.34;5106535;28;20772;-60
2021/07/14 02:09:50;;;;;;;3.92;2.90;;;;;;;21.82;65.82;101870.63;5093811;28;20088;-60
2021/07/14 02:12:28;;;;;;;3.92;2.42;;;;;;;21.81;66.00;101877.81;5097732;28;20067;-60
2021/07/14 02:15:09;;;;;;;5.22;3.03;;;;;;;21.79;66.03;101876.34;5106646;28;20071;-60
2021/07/14 02:18:11;;;;;;;4.03;2.72;;;;;;;21.76;66.05;101874.00;5108740;28;20028;-60
2021/07/14 02:20:38;;;;;;;3.65;2.85;;;;;;;21.81;66.06;101891.16;5053717;28;20398;-60
2021/07/14 02:23:05;;;;;;;3.97;2.63;;;;;;;21.82;66.23;101895.47;5094409;28;20052;-60
2021/07/14 02:25:32;;;;;;;3.85;2.67;;;;;;;21.82;65.96;101895.47;5091023;28;20421;-60
2021/07/14 02:27:57;;;;;;;5.93;2.72;;;;;;;21.82;65.91;101884.81;5095011;28;20032;-60
2021/07/14 02:30:23;;;;;;;3.60;2.60;;;;;;;21.82;66.12;101894.66;5099545;28;20080;-60
2021/07/14 02:32:53;;;;;;;5.10;3.15;;;;;;;21.81;66.20;101891.16;5106657;28;20027;-60
2021/07/14 02:35:19;;;;;;;4.38;2.75;;;;;;;21.83;66.01;101893.63;5101927;28;20028;-60
2021/07/14 02:38:01;;;;;;;5.05;2.80;;;;;;;21.83;66.39;101890.97;5096009;28;20455;-60
2021/07/14 02:40:38;;;;;;;4.05;2.50;;;;;;;21.79;66.20;101895.03;5097227;28;20028;-60
2021/07/14 02:43:05;;;;;;;3.70;2.60;;;;;;;21.83;65.92;101893.63;5090478;28;20508;-60
2021/07/14 02:45:33;;;;;;;4.28;2.67;;;;;;;21.81;65.85;101888.47;5095646;28;20040;-61
2021/07/14 02:48:01;;;;;;;3.65;2.60;;;;;;;21.80;65.84;101892.19;5093296;28;20054;-60
2021/07/14 02:50:30;;;;;;;4.05;2.70;;;;;;;21.81;66.08;101893.00;5093192;28;20070;-61
2021/07/14 02:53:01;;;;;;;3.83;2.47;;;;;;;21.82;65.99;101892.81;5092439;28;20044;-61
2021/07/14 02:55:31;;;;;;;4.57;2.70;;;;;;;21.81;65.81;101893.00;5092899;28;20105;-60
2021/07/14 02:58:03;;;;;;;4.00;2.67;;;;;;;21.81;65.81;101898.34;5093194;28;20036;-61
2021/07/14 03:00:30;;;;;;;4.30;2.50;;;;;;;21.81;65.67;101898.34;5093011;28;20107;-61
2021/07/14 03:02:57;;;;;;;3.92;2.70;;;;;;;21.81;65.69;101891.16;5093089;28;20039;-61
2021/07/14 03:05:23;;;;;;;3.50;2.38;;;;;;;21.81;65.65;101896.50;5105624;28;20035;-61
2021/07/14 03:07:49;;;;;;;3.35;2.42;;;;;;;21.81;65.74;101899.16;5090841;28;20464;-60
2021/07/14 03:10:20;;;;;;;3.80;2.80;;;;;;;21.80;65.56;101907.38;5092778;28;20032;-61
2021/07/14 03:12:47;;;;;;;3.20;2.30;;;;;;;21.81;65.88;101899.16;5092044;28;20071;-60
2021/07/14 03:15:13;;;;;;;3.70;2.50;;;;;;;21.81;65.96;101898.34;5092663;28;20051;-60
2021/07/14 03:17:41;;;;;;;3.22;2.20;;;;;;;21.82;65.54;101889.31;5092085;28;20031;-60
2021/07/14 03:20:10;;;;;;;3.30;2.50;;;;;;;21.82;65.50;101905.34;5105156;28;20027;-60
2021/07/14 03:22:38;;;;;;;3.65;2.53;;;;;;;21.81;65.52;101896.50;5101833;28;20126;-60
2021/07/14 03:25:05;;;;;;;3.33;2.20;;;;;;;21.82;65.78;101900.00;5108383;28;20039;-60
2021/07/14 03:27:31;;;;;;;3.58;2.60;;;;;;;21.81;65.49;101893.81;5100881;28;20403;-60
2021/07/14 03:29:57;;;;;;;3.25;2.53;;;;;;;21.81;65.50;101896.50;5109734;28;20444;-60
2021/07/14 03:32:24;;;;;;;3.33;2.30;;;;;;;21.81;65.38;101888.47;5110572;28;20426;-60
2021/07/14 03:34:51;;;;;;;4.20;2.50;;;;;;;21.82;65.76;101894.66;5097887;28;20107;-60
2021/07/14 03:37:18;;;;;;;4.32;2.45;;;;;;;21.81;65.46;101895.69;5109815;28;20361;-60
2021/07/14 03:39:44;;;;;;;4.00;2.30;;;;;;;21.82;65.72;101892.81;5101254;28;20031;-60
2021/07/14 03:42:16;;;;;;;3.10;2.15;;;;;;;21.82;65.83;101889.31;5106495;28;20023;-60
2021/07/14 03:44:47;;;;;;;3.25;2.30;;;;;;;21.81;65.97;101901.00;5094174;28;20027;-60
2021/07/14 03:47:15;;;;;;;3.40;2.42;;;;;;;21.81;65.91;101893.81;5109634;28;20102;-60
2021/07/14 03:49:42;;;;;;;3.40;2.42;;;;;;;21.81;66.07;101893.00;5111476;28;20629;-60
2021/07/14 03:52:09;;;;;;;3.75;2.15;;;;;;;21.81;65.68;101899.16;5105622;27;20027;-60
2021/07/14 03:54:37;;;;;;;3.38;2.33;;;;;;;21.81;65.98;101898.34;5111048;27;20031;-60
2021/07/14 03:57:03;;;;;;;2.95;2.40;;;;;;;21.82;66.04;101900.00;5106123;28;20035;-60
2021/07/14 03:59:30;;;;;;;2.70;2.10;;;;;;;21.82;65.89;101897.31;5107124;28;20059;-60
2021/07/14 04:01:57;;;;;;;3.30;2.10;;;;;;;21.81;66.07;101898.34;5096163;28;20453;-60
2021/07/14 04:04:23;;;;;;;4.32;2.42;;;;;;;21.81;66.15;101909.03;5109168;28;20066;-60
2021/07/14 04:06:58;;;;;;;4.35;2.53;;;;;;;21.80;66.06;101910.03;5109500;28;20055;-60
2021/07/14 04:09:27;;;;;;;3.38;2.22;;;;;;;21.81;65.99;101919.72;5107004;28;20023;-60
2021/07/14 04:11:57;;;;;;;3.33;2.22;;;;;;;21.81;65.69;101917.03;5109771;28;20032;-60
2021/07/14 04:14:24;;;;;;;3.38;2.35;;;;;;;21.81;65.68;101917.03;5103578;28;20488;-60
2021/07/14 04:16:51;;;;;;;3.13;2.42;;;;;;;21.81;66.02;101907.19;5108864;28;20024;-60
2021/07/14 04:19:17;;;;;;;3.45;2.30;;;;;;;21.81;65.61;101899.16;5106436;27;20062;-60
2021/07/14 04:21:42;;;;;;;5.72;2.20;;;;;;;21.81;65.60;101915.19;5104675;28;20550;-60
2021/07/14 04:24:08;;;;;;;3.40;2.50;;;;;;;21.81;65.76;101917.03;5098261;28;20035;-60
2021/07/14 04:26:34;;;;;;;3.65;2.40;;;;;;;21.81;65.89;101919.72;5106948;28;20031;-60
2021/07/14 04:29:00;;;;;;;3.35;2.38;;;;;;;21.81;65.97;101925.06;5097457;28;20082;-61
2021/07/14 04:31:25;;;;;;;2.60;2.22;;;;;;;21.80;65.91;101921.56;5110564;28;20640;-61
2021/07/14 04:33:51;;;;;;;2.95;2.22;;;;;;;21.80;65.54;101916.22;5110706;28;20433;-60
2021/07/14 04:36:17;;;;;;;3.10;2.17;;;;;;;21.81;65.84;101917.03;5097873;28;20028;-61
2021/07/14 04:38:42;;;;;;;2.83;2.20;;;;;;;21.80;65.37;101918.88;5107012;28;20030;-60
2021/07/14 04:41:08;;;;;;;2.67;2.05;;;;;;;21.79;65.65;101927.91;5109902;28;20048;-60
2021/07/14 04:43:33;;;;;;;3.78;1.80;;;;;;;21.79;65.36;101927.09;5104042;28;20036;-61
2021/07/14 04:45:59;;;;;;;3.13;2.30;;;;;;;21.79;65.65;101933.25;5109794;28;20039;-60
2021/07/14 04:48:25;;;;;;;3.35;2.30;;;;;;;21.79;65.25;101938.59;5105421;28;20030;-60
2021/07/14 04:50:52;;;;;;;3.95;2.28;;;;;;;21.79;65.38;101946.59;5104003;28;20082;-61
2021/07/14 04:53:17;;;;;;;2.65;2.00;;;;;;;21.80;65.44;101947.44;5106430;28;20039;-61
2021/07/14 04:55:43;;;;;;;4.68;2.28;;;;;;;21.80;65.61;101948.25;5107106;28;20043;-61
2021/07/14 04:58:09;;;;;;;6.25;2.50;;;;;;;21.80;65.50;101947.44;5105527;28;20028;-60
2021/07/14 05:00:34;;;;;;;3.53;2.42;;;;;;;21.79;65.53;101951.13;5104891;28;20023;-60
2021/07/14 05:03:00;;;;;;;2.58;1.90;;;;;;;21.79;65.47;101951.94;5109290;28;20106;-60
2021/07/14 05:05:25;;;;;;;3.35;2.20;;;;;;;21.79;65.41;101953.78;5104458;28;20033;-60
2021/07/14 05:07:51;;;;;;;2.65;1.90;;;;;;;21.80;65.20;101952.78;5108621;28;20035;-60
2021/07/14 05:10:20;;;;;;;3.10;2.25;;;;;;;21.79;65.08;101953.78;5107070;28;20040;-61
2021/07/14 05:12:46;;;;;;;4.15;2.72;;;;;;;21.79;65.23;101953.78;5109287;28;20120;-60
2021/07/14 05:15:11;;;;;;;3.35;2.00;;;;;;;21.79;65.01;101957.28;5109029;28;20128;-61
2021/07/14 05:17:37;;;;;;;2.63;1.95;;;;;;;21.80;65.06;101952.78;5106890;28;20039;-61
2021/07/14 05:20:04;;;;;;;3.30;2.13;;;;;;;21.79;65.08;101959.97;5104302;27;20464;-61
2021/07/14 05:22:29;;;;;;;2.45;1.80;;;;;;;21.79;65.06;101965.31;5097840;28;20130;-60
2021/07/14 05:24:55;;;;;;;2.67;1.95;;;;;;;21.79;65.00;101961.81;5105427;28;20035;-60
2021/07/14 05:27:20;;;;;;;2.88;1.90;;;;;;;21.78;64.79;101963.66;5095347;28;20084;-60
2021/07/14 05:29:45;;;;;;;2.55;2.03;;;;;;;21.78;64.78;101957.47;5109261;28;20108;-60
2021/07/14 05:32:11;;;;;;;2.53;2.20;;;;;;;21.78;64.79;101960.97;5093861;27;20054;-60
2021/07/14 05:34:36;;;;;;;2.17;1.80;;;;;;;21.78;64.91;101958.31;5109081;28;20027;-60
2021/07/14 05:37:02;;;;;;;3.42;2.20;;;;;;;21.78;64.75;101952.13;5092822;28;20031;-60
2021/07/14 05:39:27;;;;;;;3.15;1.85;;;;;;;21.77;65.02;101959.28;5099156;28;20034;-60
2021/07/14 05:41:53;;;;;;;3.00;2.00;;;;;;;21.77;65.18;101956.63;5104162;28;20502;-61
2021/07/14 05:44:19;;;;;;;2.38;1.90;;;;;;;21.77;64.88;101961.97;5108549;28;20032;-60
2021/07/14 05:46:45;;;;;;;3.50;2.00;;;;;;;21.77;65.04;101969.16;5104374;28;20051;-60
2021/07/14 05:49:11;;;;;;;2.63;1.95;;;;;;;21.78;64.66;101971.66;5108461;28;20039;-61
2021/07/14 05:51:37;;;;;;;3.13;2.30;;;;;;;21.77;64.80;101967.31;5106259;28;20114;-61
2021/07/14 05:54:03;;;;;;;3.47;2.00;;;;;;;21.77;64.92;101972.66;5105905;28;20325;-60
2021/07/14 05:56:28;;;;;;;2.42;2.00;;;;;;;21.77;64.69;101967.31;5107786;28;20030;-60
2021/07/14 05:58:54;;;;;;;3.33;2.15;;;;;;;21.77;64.58;101967.31;5104582;28;20396;-60
2021/07/14 06:01:20;;;;;;;3.17;2.08;;;;;;;21.77;64.80;101969.16;5107550;28;20031;-60
2021/07/14 06:03:49;;;;;;;2.53;1.95;;;;;;;21.78;64.82;101977.00;5106386;28;20138;-60
2021/07/14 06:06:15;;;;;;;3.00;2.00;;;;;;;21.78;64.87;101979.69;5096817;28;20061;-60
2021/07/14 06:08:42;;;;;;;3.08;2.20;;;;;;;21.78;65.00;101985.03;5107766;28;20622;-60
2021/07/14 06:11:08;;;;;;;2.92;1.92;;;;;;;21.79;65.05;101980.50;5107157;28;20107;-61
2021/07/14 06:13:33;;;;;;;3.05;2.00;;;;;;;21.78;65.16;101987.69;5103090;28;20116;-61
2021/07/14 06:15:59;;;;;;;3.38;2.10;;;;;;;21.78;65.00;101994.88;5103239;28;20098;-61
2021/07/14 06:18:25;;;;;;;2.90;2.15;;;;;;;21.77;65.01;101991.34;5110045;28;20076;-60
2021/07/14 06:20:51;;;;;;;3.00;2.17;;;;;;;21.77;64.75;101986.00;5101578;28;20032;-60
2021/07/14 06:23:16;;;;;;;2.22;1.80;;;;;;;21.78;64.64;101992.19;5122552;27;20497;-60
2021/07/14 06:25:42;;;;;;;2.75;2.03;;;;;;;21.78;64.57;102000.22;5112332;28;20032;-60
2021/07/14 06:28:12;;;;;;;2.63;1.80;;;;;;;21.77;64.76;101999.34;5110163;28;20046;-61
2021/07/14 06:30:39;;;;;;;4.15;2.15;;;;;;;21.78;64.84;102017.06;5099121;28;20160;-60
2021/07/14 06:33:04;;;;;;;3.05;2.05;;;;;;;21.78;64.67;102010.91;5094054;28;20447;-61
2021/07/14 06:35:31;;;;;;;2.47;1.98;;;;;;;21.77;64.53;102003.88;5106928;28;20071;-62
2021/07/14 06:37:57;;;;;;;2.53;1.85;;;;;;;21.78;64.50;102002.88;5102351;28;20444;-62
2021/07/14 06:40:23;;;;;;;2.70;2.00;;;;;;;21.77;64.89;102018.06;5112389;28;20032;-61
2021/07/14 06:42:49;;;;;;;3.38;1.92;;;;;;;21.77;64.71;102014.56;5107837;28;20438;-61
2021/07/14 06:45:15;;;;;;;3.35;2.22;;;;;;;21.76;64.55;102013.72;5111779;28;20062;-61
2021/07/14 06:47:41;;;;;;;2.78;1.83;;;;;;;21.78;64.39;102018.91;5110792;28;20781;-61
2021/07/14 06:50:12;;;;;;;3.03;2.33;;;;;;;21.76;64.69;102018.22;5111313;28;20035;-62
2021/07/14 06:52:41;;;;;;;2.75;2.10;;;;;;;21.77;64.52;102017.22;5106734;28;20026;-61
2021/07/14 06:55:08;;;;;;;2.28;1.92;;;;;;;21.77;64.42;102022.56;5109321;27;20035;-61
2021/07/14 06:57:34;;;;;;;3.90;1.98;;;;;;;21.76;64.31;102013.72;5110463;28;20141;-61
2021/07/14 07:00:01;;;;;;;2.45;1.92;;;;;;;21.76;64.34;102008.38;5107521;28;20024;-61
2021/07/14 07:02:26;;;;;;;2.65;2.13;;;;;;;21.76;64.47;102010.22;5107134;27;20034;-62
2021/07/14 07:04:51;;;;;;;3.63;1.90;;;;;;;21.76;64.17;102012.91;5103423;28;20084;-61
2021/07/14 07:07:17;;;;;;;4.05;2.22;;;;;;;21.76;64.56;102013.72;5109354;28;20107;-61
2021/07/14 07:09:46;;;;;;;3.88;2.70;;;;;;;21.76;64.97;102010.22;5111247;28;20471;-62
2021/07/14 07:12:11;;;;;;;4.93;2.85;;;;;;;21.74;64.58;102006.91;5111061;28;20039;-62
2021/07/14 07:14:36;;;;;;;6.55;2.92;;;;;;;21.69;64.22;102007.47;5109727;28;20135;-61
2021/07/14 07:17:02;;;;;;;5.07;3.28;;;;;;;21.64;64.14;102001.84;5103530;28;20059;-61
2021/07/14 07:19:27;;;;;;;9.07;3.67;;;;;;;21.60;64.03;102005.03;5108157;28;20467;-61
2021/07/14 07:21:53;;;;;;;7.55;3.25;;;;;;;21.57;63.71;102016.09;5092678;28;20953;-61
2021/07/14 07:24:19;;;;;;;9.55;3.45;;;;;;;21.52;63.51;102017.47;5118160;27;20042;-61
2021/07/14 07:26:46;;;;;;;11.02;3.80;;;;;;;21.51;63.29;102017.66;5110663;28;20035;-61
2021/07/14 07:29:12;;;;;;;13.80;3.78;;;;;;;21.50;63.29;102019.50;5101349;28;20036;-61
2021/07/14 07:31:38;;;;;;;8.55;4.18;;;;;;;21.51;63.53;102021.16;5105050;28;20044;-61
2021/07/14 07:34:04;;;;;;;6.05;3.42;;;;;;;21.52;63.07;102016.63;5105129;28;20039;-61
2021/07/14 07:36:30;;;;;;;13.20;4.90;;;;;;;21.53;63.46;102018.28;5103049;28;20380;-60
2021/07/14 07:38:55;;;;;;;15.80;5.20;;;;;;;21.53;63.19;102024.47;5107275;28;20028;-60
2021/07/14 07:41:23;;;;;;;11.57;4.72;;;;;;;21.52;63.47;102030.81;5103868;28;20036;-60
2021/07/14 07:43:49;;;;;;;17.13;4.78;;;;;;;21.52;63.28;102027.31;5104608;28;20032;-59
2021/07/14 07:46:14;;;;;;;13.70;4.93;;;;;;;21.51;63.09;102031.81;5101189;28;20030;-60
2021/07/14 07:48:40;;;;;;;10.27;4.90;;;;;;;21.50;63.02;102032.00;5108426;28;20039;-60
2021/07/14 07:51:06;;;;;;;15.13;5.15;;;;;;;21.48;62.74;102040.19;5107933;28;20383;-60
2021/07/14 07:53:32;;;;;;;10.18;4.30;;;;;;;21.48;63.28;102048.22;5108382;28;20050;-61
2021/07/14 07:55:58;;;;;;;18.35;5.22;;;;;;;21.47;63.17;102035.88;5108975;28;20040;-60
2021/07/14 07:58:24;;;;;;;9.60;4.20;;;;;;;21.46;63.08;102036.88;5110377;28;20054;-60
2021/07/14 08:00:49;;;;;;;9.48;4.43;;;;;;;21.46;62.72;102038.69;5109109;28;20054;-60
2021/07/14 08:03:15;;;;;;;7.80;4.10;;;;;;;21.44;62.61;102038.06;5101597;28;20068;-60
2021/07/14 08:05:41;;;;;;;7.60;3.60;;;;;;;21.42;62.27;102032.91;5100102;28;20028;-60
2021/07/14 08:08:07;;;;;;;5.90;3.70;;;;;;;21.40;62.57;102037.59;5109316;28;20035;-60
2021/07/14 08:10:33;;;;;;;6.53;3.97;;;;;;;21.39;62.17;102038.59;5102634;28;20036;-60
2021/07/14 08:12:59;;;;;;;6.78;3.42;;;;;;;21.37;62.18;102034.44;5109681;28;20115;-60
2021/07/14 08:15:25;;;;;;;6.68;3.25;;;;;;;21.36;62.17;102033.63;5103894;28;20123;-60
2021/07/14 08:17:50;;;;;;;5.50;3.22;;;;;;;21.37;62.18;102035.28;5107528;28;20785;-60
2021/07/14 08:20:16;;;;;;;7.00;3.25;;;;;;;21.38;62.11;102031.59;5110720;28;20019;-60
2021/07/14 08:22:41;;;;;;;6.40;3.47;;;;;;;21.39;62.05;102037.78;5097923;28;20085;-60
2021/07/14 08:25:09;;;;;;;8.27;3.45;;;;;;;21.39;61.93;102043.94;5103888;28;20063;-60
2021/07/14 08:27:36;;;;;;;5.10;3.00;;;;;;;21.39;61.54;102038.59;5099872;28;20085;-60
2021/07/14 08:30:04;;;;;;;3.60;3.13;;;;;;;21.39;61.92;102033.25;5095254;28;20109;-60
2021/07/14 08:32:30;;;;;;;6.50;2.90;;;;;;;21.39;61.50;102032.44;5110339;28;20054;-60
2021/07/14 08:34:57;;;;;;;4.68;3.20;;;;;;;21.38;61.54;102030.78;5109465;28;20428;-60
2021/07/14 08:37:24;;;;;;;6.05;3.60;;;;;;;21.37;61.39;102035.28;5093733;28;20088;-61
2021/07/14 08:39:54;;;;;;;5.35;3.25;;;;;;;21.36;61.25;102043.47;5098359;28;20066;-60
2021/07/14 08:42:21;;;;;;;6.05;2.90;;;;;;;21.34;61.52;102040.97;5104816;28;20085;-60
2021/07/14 08:44:48;;;;;;;4.13;2.80;;;;;;;21.34;61.54;102040.97;5108206;28;20070;-60
2021/07/14 08:47:14;;;;;;;4.90;2.88;;;;;;;21.35;61.33;102044.47;5106802;28;20126;-60
2021/07/14 08:49:43;;;;;;;7.57;2.92;;;;;;;21.34;61.20;102038.31;5110204;28;20055;-60
2021/07/14 08:52:10;;;;;;;4.43;2.58;;;;;;;21.34;61.17;102038.31;5104349;28;20027;-60
2021/07/14 08:54:41;;;;;;;4.35;2.65;;;;;;;21.33;61.28;102039.31;5110314;28;20031;-60
2021/07/14 08:57:08;;;;;;;4.10;2.83;;;;;;;21.35;61.22;102039.13;5109235;28;20096;-60
2021/07/14 08:59:33;;;;;;;4.50;3.05;;;;;;;21.35;61.28;102042.63;5108228;28;20484;-60
2021/07/14 09:01:59;;;;;;;3.85;2.80;;;;;;;21.35;61.28;102037.31;5106120;28;20034;-60
2021/07/14 09:04:24;;;;;;;4.90;3.00;;;;;;;21.35;61.30;102037.31;5103856;28;20392;-60
2021/07/14 09:06:50;;;;;;;5.70;2.70;;;;;;;21.36;61.37;102035.47;5108784;28;20430;-60
2021/07/14 09:09:15;;;;;;;4.40;2.67;;;;;;;21.36;61.36;102032.78;5104709;28;20134;-60
2021/07/14 09:11:50;;;;;;;4.07;2.70;;;;;;;21.35;61.44;102031.13;5109369;28;20028;-60
2021/07/14 09:14:36;;;;;;;4.05;2.53;;;;;;;21.32;61.25;102027.00;5108660;28;20055;-60
2021/07/14 09:17:25;;;;;;;4.47;2.47;;;;;;;21.34;61.15;102026.81;5104856;28;20040;-60
2021/07/14 09:19:59;;;;;;;4.40;2.30;;;;;;;21.36;61.14;102017.59;5105185;28;20028;-60
2021/07/14 09:22:30;;;;;;;4.35;2.85;;;;;;;21.38;61.42;102012.09;5098404;28;20028;-60
2021/07/14 09:24:56;;;;;;;4.10;2.50;;;;;;;21.39;61.19;102011.91;5103036;28;20062;-61
2021/07/14 09:27:35;;;;;;;2.97;2.33;;;;;;;21.39;61.10;102017.25;5094884;28;20053;-61
2021/07/14 09:30:06;;;;;;;4.15;2.47;;;;;;;21.38;61.20;102014.75;5107243;28;20039;-60
2021/07/14 09:32:57;;;;;;;3.65;2.25;;;;;;;21.33;61.27;102009.97;5096941;28;20036;-60
2021/07/14 09:35:36;;;;;;;5.13;2.45;;;;;;;21.36;61.09;102011.44;5093860;28;20050;-60
2021/07/14 09:38:10;;;;;;;3.30;2.17;;;;;;;21.37;61.00;102011.25;5108281;28;20028;-60
2021/07/14 09:40:37;;;;;;;;;;;;;;;21.31;61.39;102011.16;5109345;28;20030;-60
2021/07/14 09:43:02;;;;;;;5.18;2.17;;;;;;;21.38;61.09;102014.75;5103508;28;19925;-60
2021/07/14 09:45:38;;;;;;;3.88;2.38;;;;;;;21.35;61.03;102018.63;5105118;28;20027;-60
2021/07/14 09:48:05;;;;;;;3.47;2.00;;;;;;;21.37;61.09;102013.94;5108275;28;20473;-60
2021/07/14 09:50:36;;;;;;;4.47;2.20;;;;;;;21.37;61.00;102018.44;5108823;28;20031;-60
2021/07/14 09:53:07;;;;;;;2.97;1.88;;;;;;;21.36;61.21;102012.28;5103179;28;20057;-60
2021/07/14 09:55:34;;;;;;;3.88;1.63;;;;;;;21.37;60.99;102013.94;5100397;28;20643;-60
2021/07/14 09:58:17;;;;;;;2.63;1.65;;;;;;;21.35;60.72;102012.44;5108762;28;20137;-60
2021/07/14 10:00:53;;;;;;;3.03;1.60;;;;;;;21.37;60.39;102013.94;5104990;28;20494;-60
2021/07/14 10:03:28;;;;;;;3.63;1.70;;;;;;;21.40;60.58;102013.56;5108579;28;20062;-60
2021/07/14 10:06:13;;;;;;;;;;;;;;;21.31;60.55;102009.31;5105582;28;20027;-60
2021/07/14 10:08:41;;;;;;;3.35;1.50;;;;;;;21.37;60.54;102003.25;5108249;28;20268;-60
2021/07/14 10:11:22;;;;;;;2.33;1.10;;;;;;;21.36;60.13;102014.09;5103885;28;20038;-60
2021/07/14 10:13:56;;;;;;;2.15;1.20;;;;;;;21.36;59.93;102009.59;5108371;28;20121;-60
2021/07/14 10:16:25;;;;;;;2.78;0.80;;;;;;;21.37;60.02;102007.75;5103531;28;20153;-60
2021/07/14 10:19:02;;;;;;;1.40;1.00;;;;;;;21.35;59.62;102017.78;5108657;28;20613;-60
2021/07/14 10:21:29;;;;;;;2.05;0.80;;;;;;;21.38;59.53;102015.59;5105461;28;20020;-60
2021/07/14 10:23:55;;;;;;;1.85;0.88;;;;;;;21.37;59.51;102018.44;5094334;28;20032;-60
2021/07/14 10:26:21;;;;;;;1.85;1.05;;;;;;;21.36;59.60;102020.28;5108359;28;20089;-60
2021/07/14 10:28:50;;;;;;;3.08;1.00;;;;;;;21.36;59.70;102022.94;5093757;28;20387;-60
2021/07/14 10:31:21;;;;;;;2.38;1.23;;;;;;;21.37;59.64;102031.78;5095594;28;20114;-60
2021/07/14 10:33:51;;;;;;;2.25;1.00;;;;;;;21.36;59.11;102022.13;5107224;28;20035;-60
2021/07/14 10:36:21;;;;;;;2.15;1.30;;;;;;;21.35;59.73;102031.97;5106978;28;20418;-60
2021/07/14 10:38:50;;;;;;;2.10;1.10;;;;;;;21.36;59.60;102022.94;5108417;28;20027;-60
2021/07/14 10:41:17;;;;;;;1.10;1.00;;;;;;;21.36;59.34;102024.78;5107585;28;20490;-60
2021/07/14 10:43:44;;;;;;;4.22;1.23;;;;;;;21.36;59.76;102030.94;5108360;28;20046;-60
2021/07/14 10:46:11;;;;;;;2.55;1.10;;;;;;;21.38;59.37;102014.75;5103974;28;20059;-60
2021/07/14 10:48:40;;;;;;;1.58;1.20;;;;;;;21.37;59.37;102010.44;5102582;28;20365;-60
2021/07/14 10:51:06;;;;;;;1.80;1.40;;;;;;;21.38;59.32;102018.25;5107313;28;20036;-60
2021/07/14 10:53:33;;;;;;;4.95;1.60;;;;;;;21.38;59.27;102006.75;5107888;28;20455;-60
2021/07/14 10:56:00;;;;;;;4.38;1.70;;;;;;;21.41;59.42;102011.72;5102098;28;20032;-60
2021/07/14 10:58:29;;;;;;;1.85;1.42;;;;;;;21.38;58.91;102014.75;5107602;28;20034;-60
2021/07/14 11:00:57;;;;;;;2.47;1.55;;;;;;;21.40;59.35;102015.41;5103075;28;20030;-61
2021/07/14 11:03:31;;;;;;;2.65;1.63;;;;;;;21.37;58.61;102018.44;5106917;28;20028;-60
2021/07/14 11:05:57;;;;;;;4.45;1.98;;;;;;;21.39;58.68;102017.25;5108834;28;20042;-60
2021/07/14 11:08:49;;;;;;;2.60;1.50;;;;;;;21.34;58.71;102008.94;5110887;28;20044;-60
2021/07/14 11:11:18;;;;;;;2.08;1.40;;;;;;;21.39;58.89;102009.22;5111171;28;20020;-60
2021/07/14 11:13:45;;;;;;;4.75;1.52;;;;;;;21.41;58.81;102003.72;5109409;28;20060;-60
2021/07/14 11:16:35;;;;;;;2.42;1.50;;;;;;;21.38;58.93;102006.75;5108958;28;20047;-60
2021/07/14 11:19:17;;;;;;;2.35;1.10;;;;;;;21.44;58.53;102012.19;5107154;28;20038;-60
2021/07/14 11:21:52;;;;;;;3.25;1.90;;;;;;;21.45;58.59;102010.34;5109626;28;20019;-60
2021/07/14 11:24:36;;;;;;;4.50;1.25;;;;;;;21.40;58.51;102012.72;5110062;28;20036;-60
2021/07/14 11:27:26;;;;;;;3.00;1.40;;;;;;;21.37;58.66;102013.94;5109456;28;20423;-60
2021/07/14 11:30:04;;;;;;;3.47;1.73;;;;;;;21.38;58.60;102014.75;5111227;28;20067;-61
2021/07/14 11:32:38;;;;;;;2.20;1.60;;;;;;;21.39;58.36;102014.56;5101237;28;20364;-60
2021/07/14 11:35:18;;;;;;;2.33;1.58;;;;;;;21.40;58.47;102018.91;5106372;28;20023;-60
2021/07/14 11:37:55;;;;;;;2.33;1.42;;;;;;;21.43;58.45;102013.19;5101089;28;20024;-60
2021/07/14 11:40:20;;;;;;;4.22;1.67;;;;;;;21.44;58.29;102020.19;5108032;28;21083;-60